sensor_id;sensor_type;location;lat;lon;timestamp;P1;durP1;ratioP1;P2;durP2;ratioP2
46653;SDS011;38960;51.074;17.004;2022-08-03T00:00:40;14.23;;;13.07;;
46653;SDS011;38960;51.074;17.004;2022-08-03T00:03:06;14.00;;;12.77;;
46653;SDS011;38960;51.074;17.004;2022-08-03T00:05:31;14.82;;;13.52;;
46653;SDS011;38960;51.074;17.004;2022-08-03T00:07:58;13.45;;;12.35;;
46653;SDS011;38960;51.074;17.004;2022-08-03T00:10:24;13.02;;;12.00;;
46653;SDS011;38960;51.074;17.004;2022-08-03T00:12:49;15.20;;;12.73;;
46653;SDS011;38960;51.074;17.004;2022-08-03T00:15:15;14.45;;;13.18;;
46653;SDS011;38960;51.074;17.004;2022-08-03T00:17:40;12.88;;;12.00;;
46653;SDS011;38960;51.074;17.004;2022-08-03T00:20:06;14.30;;;12.68;;
46653;SDS011;38960;51.074;17.004;2022-08-03T00:22:33;13.65;;;12.45;;
46653;SDS011;38960;51.074;17.004;2022-08-03T00:24:59;13.82;;;12.73;;
46653;SDS011;38960;51.074;17.004;2022-08-03T00:27:24;13.52;;;12.52;;
46653;SDS011;38960;51.074;17.004;2022-08-03T00:29:50;12.88;;;12.05;;
46653;SDS011;38960;51.074;17.004;2022-08-03T00:32:15;13.07;;;12.18;;
46653;SDS011;38960;51.074;17.004;2022-08-03T00:34:41;13.85;;;12.85;;
46653;SDS011;38960;51.074;17.004;2022-08-03T00:37:06;13.73;;;12.73;;
46653;SDS011;38960;51.074;17.004;2022-08-03T00:39:32;13.55;;;12.55;;
46653;SDS011;38960;51.074;17.004;2022-08-03T00:42:00;14.07;;;12.88;;
46653;SDS011;38960;51.074;17.004;2022-08-03T00:44:26;13.90;;;12.90;;
46653;SDS011;38960;51.074;17.004;2022-08-03T00:46:52;13.45;;;12.43;;
46653;SDS011;38960;51.074;17.004;2022-08-03T00:49:17;14.00;;;13.00;;
46653;SDS011;38960;51.074;17.004;2022-08-03T00:51:43;14.50;;;13.40;;
46653;SDS011;38960;51.074;17.004;2022-08-03T00:54:08;13.73;;;12.65;;
46653;SDS011;38960;51.074;17.004;2022-08-03T00:56:34;13.50;;;12.52;;
46653;SDS011;38960;51.074;17.004;2022-08-03T00:59:00;14.27;;;13.23;;
46653;SDS011;38960;51.074;17.004;2022-08-03T01:01:26;14.07;;;13.07;;
46653;SDS011;38960;51.074;17.004;2022-08-03T01:03:51;15.48;;;14.05;;
46653;SDS011;38960;51.074;17.004;2022-08-03T01:06:17;13.73;;;12.80;;
46653;SDS011;38960;51.074;17.004;2022-08-03T01:11:37;14.55;;;13.55;;
46653;SDS011;38960;51.074;17.004;2022-08-03T01:14:33;14.38;;;12.93;;
46653;SDS011;38960;51.074;17.004;2022-08-03T01:17:24;14.20;;;13.18;;
46653;SDS011;38960;51.074;17.004;2022-08-03T01:20:01;14.52;;;13.27;;
46653;SDS011;38960;51.074;17.004;2022-08-03T01:30:54;14.40;;;13.30;;
46653;SDS011;38960;51.074;17.004;2022-08-03T01:33:21;14.38;;;13.18;;
46653;SDS011;38960;51.074;17.004;2022-08-03T01:35:51;15.57;;;14.27;;
46653;SDS011;38960;51.074;17.004;2022-08-03T01:38:23;15.70;;;14.40;;
46653;SDS011;38960;51.074;17.004;2022-08-03T01:40:51;15.50;;;14.00;;
46653;SDS011;38960;51.074;17.004;2022-08-03T01:43:18;16.50;;;15.23;;
46653;SDS011;38960;51.074;17.004;2022-08-03T01:45:45;14.70;;;13.68;;
46653;SDS011;38960;51.074;17.004;2022-08-03T01:48:12;15.40;;;14.10;;
46653;SDS011;38960;51.074;17.004;2022-08-03T01:50:40;16.02;;;14.73;;
46653;SDS011;38960;51.074;17.004;2022-08-03T01:53:06;15.07;;;13.93;;
46653;SDS011;38960;51.074;17.004;2022-08-03T01:55:33;15.80;;;14.35;;
46653;SDS011;38960;51.074;17.004;2022-08-03T01:58:01;15.82;;;14.45;;
46653;SDS011;38960;51.074;17.004;2022-08-03T02:00:27;15.02;;;13.73;;
46653;SDS011;38960;51.074;17.004;2022-08-03T02:02:53;14.77;;;13.48;;
46653;SDS011;38960;51.074;17.004;2022-08-03T02:05:19;15.00;;;13.68;;
46653;SDS011;38960;51.074;17.004;2022-08-03T02:07:45;15.00;;;13.55;;
46653;SDS011;38960;51.074;17.004;2022-08-03T02:10:13;15.63;;;14.43;;
46653;SDS011;38960;51.074;17.004;2022-08-03T02:12:41;15.35;;;14.25;;
46653;SDS011;38960;51.074;17.004;2022-08-03T02:15:08;15.23;;;14.02;;
46653;SDS011;38960;51.074;17.004;2022-08-03T02:17:34;16.67;;;15.32;;
46653;SDS011;38960;51.074;17.004;2022-08-03T02:20:00;15.82;;;14.43;;
46653;SDS011;38960;51.074;17.004;2022-08-03T02:22:27;14.95;;;13.95;;
46653;SDS011;38960;51.074;17.004;2022-08-03T02:24:53;15.07;;;13.95;;
46653;SDS011;38960;51.074;17.004;2022-08-03T02:27:20;15.68;;;14.15;;
46653;SDS011;38960;51.074;17.004;2022-08-03T02:29:48;15.93;;;14.45;;
46653;SDS011;38960;51.074;17.004;2022-08-03T02:32:19;15.68;;;14.40;;
46653;SDS011;38960;51.074;17.004;2022-08-03T02:34:46;15.32;;;13.85;;
46653;SDS011;38960;51.074;17.004;2022-08-03T02:37:13;15.05;;;13.93;;
46653;SDS011;38960;51.074;17.004;2022-08-03T02:39:43;15.50;;;14.30;;
46653;SDS011;38960;51.074;17.004;2022-08-03T02:42:09;15.82;;;14.38;;
46653;SDS011;38960;51.074;17.004;2022-08-03T02:44:36;15.20;;;13.85;;
46653;SDS011;38960;51.074;17.004;2022-08-03T02:47:03;15.57;;;14.48;;
46653;SDS011;38960;51.074;17.004;2022-08-03T02:49:30;15.55;;;14.27;;
46653;SDS011;38960;51.074;17.004;2022-08-03T02:51:56;15.77;;;14.55;;
46653;SDS011;38960;51.074;17.004;2022-08-03T02:54:22;15.88;;;14.57;;
46653;SDS011;38960;51.074;17.004;2022-08-03T02:56:49;14.90;;;13.63;;
46653;SDS011;38960;51.074;17.004;2022-08-03T02:59:16;15.02;;;13.88;;
46653;SDS011;38960;51.074;17.004;2022-08-03T03:01:43;15.80;;;14.50;;
46653;SDS011;38960;51.074;17.004;2022-08-03T03:04:08;17.27;;;14.27;;
46653;SDS011;38960;51.074;17.004;2022-08-03T03:06:35;15.38;;;14.07;;
46653;SDS011;38960;51.074;17.004;2022-08-03T03:09:01;14.57;;;13.23;;
46653;SDS011;38960;51.074;17.004;2022-08-03T03:11:26;15.45;;;13.60;;
46653;SDS011;38960;51.074;17.004;2022-08-03T03:13:53;16.00;;;14.68;;
46653;SDS011;38960;51.074;17.004;2022-08-03T03:16:20;15.13;;;14.02;;
46653;SDS011;38960;51.074;17.004;2022-08-03T03:18:46;15.52;;;14.32;;
46653;SDS011;38960;51.074;17.004;2022-08-03T03:21:14;15.63;;;14.25;;
46653;SDS011;38960;51.074;17.004;2022-08-03T03:23:41;15.52;;;14.32;;
46653;SDS011;38960;51.074;17.004;2022-08-03T03:26:07;15.82;;;14.32;;
46653;SDS011;38960;51.074;17.004;2022-08-03T03:28:33;15.20;;;14.10;;
46653;SDS011;38960;51.074;17.004;2022-08-03T03:31:01;15.20;;;13.80;;
46653;SDS011;38960;51.074;17.004;2022-08-03T03:33:27;15.40;;;13.98;;
46653;SDS011;38960;51.074;17.004;2022-08-03T03:35:53;14.85;;;13.38;;
46653;SDS011;38960;51.074;17.004;2022-08-03T03:38:18;15.57;;;14.18;;
46653;SDS011;38960;51.074;17.004;2022-08-03T03:40:44;15.93;;;14.43;;
46653;SDS011;38960;51.074;17.004;2022-08-03T03:43:10;15.63;;;14.40;;
46653;SDS011;38960;51.074;17.004;2022-08-03T03:45:36;16.65;;;15.35;;
46653;SDS011;38960;51.074;17.004;2022-08-03T03:48:02;16.40;;;14.90;;
46653;SDS011;38960;51.074;17.004;2022-08-03T03:50:29;15.70;;;14.52;;
46653;SDS011;38960;51.074;17.004;2022-08-03T03:52:55;17.35;;;15.90;;
46653;SDS011;38960;51.074;17.004;2022-08-03T03:55:20;17.10;;;15.48;;
46653;SDS011;38960;51.074;17.004;2022-08-03T03:57:46;16.90;;;15.50;;
46653;SDS011;38960;51.074;17.004;2022-08-03T04:00:12;16.45;;;15.15;;
46653;SDS011;38960;51.074;17.004;2022-08-03T04:02:39;16.52;;;15.10;;
46653;SDS011;38960;51.074;17.004;2022-08-03T04:05:05;16.45;;;14.73;;
46653;SDS011;38960;51.074;17.004;2022-08-03T04:07:59;17.50;;;15.70;;
46653;SDS011;38960;51.074;17.004;2022-08-03T04:10:46;16.77;;;15.43;;
46653;SDS011;38960;51.074;17.004;2022-08-03T04:16:18;16.65;;;15.25;;
46653;SDS011;38960;51.074;17.004;2022-08-03T04:18:48;16.40;;;14.80;;
46653;SDS011;38960;51.074;17.004;2022-08-03T04:21:17;16.52;;;15.07;;
46653;SDS011;38960;51.074;17.004;2022-08-03T04:23:45;16.85;;;15.45;;
46653;SDS011;38960;51.074;17.004;2022-08-03T04:26:14;16.88;;;15.40;;
46653;SDS011;38960;51.074;17.004;2022-08-03T04:28:41;16.13;;;14.90;;
46653;SDS011;38960;51.074;17.004;2022-08-03T04:31:10;17.65;;;16.05;;
46653;SDS011;38960;51.074;17.004;2022-08-03T04:33:37;16.63;;;15.43;;
46653;SDS011;38960;51.074;17.004;2022-08-03T04:36:04;16.17;;;14.90;;
46653;SDS011;38960;51.074;17.004;2022-08-03T04:38:32;16.83;;;15.52;;
46653;SDS011;38960;51.074;17.004;2022-08-03T04:41:20;17.52;;;15.95;;
46653;SDS011;38960;51.074;17.004;2022-08-03T04:43:47;16.13;;;14.70;;
46653;SDS011;38960;51.074;17.004;2022-08-03T04:46:13;17.05;;;15.43;;
46653;SDS011;38960;51.074;17.004;2022-08-03T04:48:39;16.02;;;14.80;;
46653;SDS011;38960;51.074;17.004;2022-08-03T04:51:07;16.60;;;15.20;;
46653;SDS011;38960;51.074;17.004;2022-08-03T04:53:32;17.42;;;15.43;;
46653;SDS011;38960;51.074;17.004;2022-08-03T04:56:04;17.42;;;14.90;;
46653;SDS011;38960;51.074;17.004;2022-08-03T04:58:29;16.30;;;14.75;;
46653;SDS011;38960;51.074;17.004;2022-08-03T05:00:55;17.13;;;15.43;;
46653;SDS011;38960;51.074;17.004;2022-08-03T05:03:20;16.23;;;14.68;;
46653;SDS011;38960;51.074;17.004;2022-08-03T05:05:46;17.00;;;15.35;;
46653;SDS011;38960;51.074;17.004;2022-08-03T05:08:11;15.85;;;14.55;;
46653;SDS011;38960;51.074;17.004;2022-08-03T05:10:37;16.88;;;15.57;;
46653;SDS011;38960;51.074;17.004;2022-08-03T05:13:02;17.35;;;15.75;;
46653;SDS011;38960;51.074;17.004;2022-08-03T05:15:28;16.70;;;15.25;;
46653;SDS011;38960;51.074;17.004;2022-08-03T05:17:53;16.30;;;14.80;;
46653;SDS011;38960;51.074;17.004;2022-08-03T05:20:19;16.27;;;15.07;;
46653;SDS011;38960;51.074;17.004;2022-08-03T05:22:45;17.10;;;15.80;;
46653;SDS011;38960;51.074;17.004;2022-08-03T05:25:10;16.77;;;15.48;;
46653;SDS011;38960;51.074;17.004;2022-08-03T05:27:35;16.73;;;15.20;;
46653;SDS011;38960;51.074;17.004;2022-08-03T05:30:01;15.98;;;14.65;;
46653;SDS011;38960;51.074;17.004;2022-08-03T05:32:27;16.67;;;15.13;;
46653;SDS011;38960;51.074;17.004;2022-08-03T05:34:53;16.83;;;15.13;;
46653;SDS011;38960;51.074;17.004;2022-08-03T05:37:18;16.73;;;15.05;;
46653;SDS011;38960;51.074;17.004;2022-08-03T05:39:44;16.50;;;15.30;;
46653;SDS011;38960;51.074;17.004;2022-08-03T05:42:09;16.73;;;15.35;;
46653;SDS011;38960;51.074;17.004;2022-08-03T05:44:35;16.42;;;15.15;;
46653;SDS011;38960;51.074;17.004;2022-08-03T05:47:03;17.58;;;15.93;;
46653;SDS011;38960;51.074;17.004;2022-08-03T05:49:29;16.83;;;15.32;;
46653;SDS011;38960;51.074;17.004;2022-08-03T05:51:54;16.95;;;15.45;;
46653;SDS011;38960;51.074;17.004;2022-08-03T05:54:20;16.55;;;15.13;;
46653;SDS011;38960;51.074;17.004;2022-08-03T05:56:45;16.77;;;15.27;;
46653;SDS011;38960;51.074;17.004;2022-08-03T05:59:11;15.55;;;14.25;;
46653;SDS011;38960;51.074;17.004;2022-08-03T06:01:36;16.48;;;15.05;;
46653;SDS011;38960;51.074;17.004;2022-08-03T06:04:01;18.15;;;16.40;;
46653;SDS011;38960;51.074;17.004;2022-08-03T06:06:27;16.60;;;15.43;;
46653;SDS011;38960;51.074;17.004;2022-08-03T06:08:53;17.55;;;16.25;;
46653;SDS011;38960;51.074;17.004;2022-08-03T06:11:18;18.00;;;15.88;;
46653;SDS011;38960;51.074;17.004;2022-08-03T06:13:44;17.42;;;15.88;;
46653;SDS011;38960;51.074;17.004;2022-08-03T06:16:09;16.95;;;15.55;;
46653;SDS011;38960;51.074;17.004;2022-08-03T06:18:35;16.55;;;15.18;;
46653;SDS011;38960;51.074;17.004;2022-08-03T06:21:01;15.73;;;14.70;;
46653;SDS011;38960;51.074;17.004;2022-08-03T06:23:26;16.13;;;15.07;;
46653;SDS011;38960;51.074;17.004;2022-08-03T06:25:52;15.32;;;14.32;;
46653;SDS011;38960;51.074;17.004;2022-08-03T06:28:17;15.60;;;14.50;;
46653;SDS011;38960;51.074;17.004;2022-08-03T06:30:43;15.10;;;14.02;;
46653;SDS011;38960;51.074;17.004;2022-08-03T06:33:09;14.57;;;13.55;;
46653;SDS011;38960;51.074;17.004;2022-08-03T06:35:34;15.43;;;14.05;;
46653;SDS011;38960;51.074;17.004;2022-08-03T06:38:00;14.68;;;13.57;;
46653;SDS011;38960;51.074;17.004;2022-08-03T06:40:27;15.25;;;14.07;;
46653;SDS011;38960;51.074;17.004;2022-08-03T06:42:59;14.82;;;13.82;;
46653;SDS011;38960;51.074;17.004;2022-08-03T06:45:26;15.15;;;14.10;;
46653;SDS011;38960;51.074;17.004;2022-08-03T06:48:09;14.50;;;13.40;;
46653;SDS011;38960;51.074;17.004;2022-08-03T06:50:36;13.82;;;12.82;;
46653;SDS011;38960;51.074;17.004;2022-08-03T06:53:02;13.82;;;12.82;;
46653;SDS011;38960;51.074;17.004;2022-08-03T06:55:29;15.52;;;13.75;;
46653;SDS011;38960;51.074;17.004;2022-08-03T06:57:54;14.95;;;13.93;;
46653;SDS011;38960;51.074;17.004;2022-08-03T07:00:20;15.02;;;13.85;;
46653;SDS011;38960;51.074;17.004;2022-08-03T07:02:46;14.45;;;13.38;;
46653;SDS011;38960;51.074;17.004;2022-08-03T07:05:11;13.98;;;12.90;;
46653;SDS011;38960;51.074;17.004;2022-08-03T07:07:37;14.60;;;13.50;;
46653;SDS011;38960;51.074;17.004;2022-08-03T07:10:03;14.15;;;13.10;;
46653;SDS011;38960;51.074;17.004;2022-08-03T07:12:30;14.23;;;13.32;;
46653;SDS011;38960;51.074;17.004;2022-08-03T07:14:56;14.63;;;13.60;;
46653;SDS011;38960;51.074;17.004;2022-08-03T07:17:22;14.55;;;13.75;;
46653;SDS011;38960;51.074;17.004;2022-08-03T07:19:48;14.13;;;12.93;;
46653;SDS011;38960;51.074;17.004;2022-08-03T07:22:13;14.73;;;13.45;;
46653;SDS011;38960;51.074;17.004;2022-08-03T07:24:39;14.70;;;13.80;;
46653;SDS011;38960;51.074;17.004;2022-08-03T07:27:06;14.25;;;13.15;;
46653;SDS011;38960;51.074;17.004;2022-08-03T07:29:33;14.60;;;13.55;;
46653;SDS011;38960;51.074;17.004;2022-08-03T07:31:58;14.50;;;13.50;;
46653;SDS011;38960;51.074;17.004;2022-08-03T07:34:24;14.50;;;13.32;;
46653;SDS011;38960;51.074;17.004;2022-08-03T07:36:49;15.02;;;13.70;;
46653;SDS011;38960;51.074;17.004;2022-08-03T07:39:15;14.00;;;13.00;;
46653;SDS011;38960;51.074;17.004;2022-08-03T07:41:40;14.13;;;13.32;;
46653;SDS011;38960;51.074;17.004;2022-08-03T07:44:06;14.80;;;13.80;;
46653;SDS011;38960;51.074;17.004;2022-08-03T07:46:31;13.98;;;13.05;;
46653;SDS011;38960;51.074;17.004;2022-08-03T07:48:57;14.48;;;13.57;;
46653;SDS011;38960;51.074;17.004;2022-08-03T07:51:23;15.07;;;13.88;;
46653;SDS011;38960;51.074;17.004;2022-08-03T07:53:48;13.90;;;13.00;;
46653;SDS011;38960;51.074;17.004;2022-08-03T07:56:13;14.60;;;13.70;;
46653;SDS011;38960;51.074;17.004;2022-08-03T07:58:40;14.77;;;13.88;;
46653;SDS011;38960;51.074;17.004;2022-08-03T08:01:06;15.38;;;14.48;;
46653;SDS011;38960;51.074;17.004;2022-08-03T08:03:31;14.52;;;13.65;;
46653;SDS011;38960;51.074;17.004;2022-08-03T08:05:57;13.30;;;12.50;;
46653;SDS011;38960;51.074;17.004;2022-08-03T08:08:22;14.50;;;13.60;;
46653;SDS011;38960;51.074;17.004;2022-08-03T08:10:48;14.85;;;13.80;;
46653;SDS011;38960;51.074;17.004;2022-08-03T08:13:13;14.77;;;13.68;;
46653;SDS011;38960;51.074;17.004;2022-08-03T08:15:39;14.38;;;13.48;;
46653;SDS011;38960;51.074;17.004;2022-08-03T08:18:04;14.27;;;13.38;;
46653;SDS011;38960;51.074;17.004;2022-08-03T08:20:31;14.65;;;13.55;;
46653;SDS011;38960;51.074;17.004;2022-08-03T08:22:58;14.90;;;14.10;;
46653;SDS011;38960;51.074;17.004;2022-08-03T08:25:25;14.48;;;13.55;;
46653;SDS011;38960;51.074;17.004;2022-08-03T08:27:51;14.07;;;13.15;;
46653;SDS011;38960;51.074;17.004;2022-08-03T08:30:18;14.68;;;13.40;;
46653;SDS011;38960;51.074;17.004;2022-08-03T08:32:44;14.38;;;13.48;;
46653;SDS011;38960;51.074;17.004;2022-08-03T08:35:10;14.88;;;13.95;;
46653;SDS011;38960;51.074;17.004;2022-08-03T08:37:36;14.95;;;14.13;;
46653;SDS011;38960;51.074;17.004;2022-08-03T08:40:02;15.20;;;14.18;;
46653;SDS011;38960;51.074;17.004;2022-08-03T08:42:28;14.15;;;13.35;;
46653;SDS011;38960;51.074;17.004;2022-08-03T08:44:55;14.80;;;13.90;;
46653;SDS011;38960;51.074;17.004;2022-08-03T08:47:23;14.60;;;13.73;;
46653;SDS011;38960;51.074;17.004;2022-08-03T08:49:52;15.05;;;14.05;;
46653;SDS011;38960;51.074;17.004;2022-08-03T08:52:22;15.00;;;14.10;;
46653;SDS011;38960;51.074;17.004;2022-08-03T08:54:49;15.38;;;13.98;;
46653;SDS011;38960;51.074;17.004;2022-08-03T08:57:16;14.73;;;13.93;;
46653;SDS011;38960;51.074;17.004;2022-08-03T08:59:42;14.65;;;13.85;;
46653;SDS011;38960;51.074;17.004;2022-08-03T09:02:08;14.50;;;13.70;;
46653;SDS011;38960;51.074;17.004;2022-08-03T09:04:34;14.90;;;14.00;;
46653;SDS011;38960;51.074;17.004;2022-08-03T09:07:03;13.82;;;13.02;;
46653;SDS011;38960;51.074;17.004;2022-08-03T09:09:29;14.02;;;13.23;;
46653;SDS011;38960;51.074;17.004;2022-08-03T09:11:55;14.40;;;13.50;;
46653;SDS011;38960;51.074;17.004;2022-08-03T09:14:20;13.65;;;12.75;;
46653;SDS011;38960;51.074;17.004;2022-08-03T09:17:07;14.70;;;13.70;;
46653;SDS011;38960;51.074;17.004;2022-08-03T09:19:33;14.88;;;13.98;;
46653;SDS011;38960;51.074;17.004;2022-08-03T09:22:08;14.50;;;13.35;;
46653;SDS011;38960;51.074;17.004;2022-08-03T09:24:36;13.98;;;12.75;;
46653;SDS011;38960;51.074;17.004;2022-08-03T09:27:06;13.77;;;12.98;;
46653;SDS011;38960;51.074;17.004;2022-08-03T09:29:37;12.98;;;12.07;;
46653;SDS011;38960;51.074;17.004;2022-08-03T09:32:03;14.27;;;13.07;;
46653;SDS011;38960;51.074;17.004;2022-08-03T09:34:29;13.15;;;12.35;;
46653;SDS011;38960;51.074;17.004;2022-08-03T09:36:55;12.32;;;11.63;;
46653;SDS011;38960;51.074;17.004;2022-08-03T09:39:23;12.80;;;12.10;;
46653;SDS011;38960;51.074;17.004;2022-08-03T09:42:10;13.73;;;12.73;;
46653;SDS011;38960;51.074;17.004;2022-08-03T09:44:37;13.27;;;12.20;;
46653;SDS011;38960;51.074;17.004;2022-08-03T09:47:06;12.80;;;12.00;;
46653;SDS011;38960;51.074;17.004;2022-08-03T09:49:34;12.48;;;11.80;;
46653;SDS011;38960;51.074;17.004;2022-08-03T09:52:00;12.30;;;11.63;;
46653;SDS011;38960;51.074;17.004;2022-08-03T09:54:30;13.00;;;12.23;;
46653;SDS011;38960;51.074;17.004;2022-08-03T09:59:26;12.43;;;11.73;;
46653;SDS011;38960;51.074;17.004;2022-08-03T10:01:53;12.73;;;12.02;;
46653;SDS011;38960;51.074;17.004;2022-08-03T10:04:19;12.80;;;12.00;;
46653;SDS011;38960;51.074;17.004;2022-08-03T10:07:00;11.68;;;10.88;;
46653;SDS011;38960;51.074;17.004;2022-08-03T10:09:35;12.20;;;11.50;;
46653;SDS011;38960;51.074;17.004;2022-08-03T10:12:10;12.00;;;11.20;;
46653;SDS011;38960;51.074;17.004;2022-08-03T10:14:37;11.60;;;10.90;;
46653;SDS011;38960;51.074;17.004;2022-08-03T10:17:03;11.75;;;11.05;;
46653;SDS011;38960;51.074;17.004;2022-08-03T10:19:29;11.02;;;10.43;;
46653;SDS011;38960;51.074;17.004;2022-08-03T10:21:55;11.52;;;10.82;;
46653;SDS011;38960;51.074;17.004;2022-08-03T10:24:25;12.00;;;11.07;;
46653;SDS011;38960;51.074;17.004;2022-08-03T10:26:55;12.18;;;11.45;;
46653;SDS011;38960;51.074;17.004;2022-08-03T10:29:28;12.23;;;11.32;;
46653;SDS011;38960;51.074;17.004;2022-08-03T10:31:57;12.10;;;11.30;;
46653;SDS011;38960;51.074;17.004;2022-08-03T10:34:26;12.57;;;11.50;;
46653;SDS011;38960;51.074;17.004;2022-08-03T10:36:55;12.07;;;11.38;;
46653;SDS011;38960;51.074;17.004;2022-08-03T10:39:21;11.88;;;11.10;;
46653;SDS011;38960;51.074;17.004;2022-08-03T10:41:48;11.90;;;11.15;;
46653;SDS011;38960;51.074;17.004;2022-08-03T10:44:18;11.55;;;10.85;;
46653;SDS011;38960;51.074;17.004;2022-08-03T10:49:11;12.07;;;11.25;;
46653;SDS011;38960;51.074;17.004;2022-08-03T10:51:40;11.60;;;10.85;;
46653;SDS011;38960;51.074;17.004;2022-08-03T10:54:07;11.38;;;10.63;;
46653;SDS011;38960;51.074;17.004;2022-08-03T10:57:01;12.60;;;11.80;;
46653;SDS011;38960;51.074;17.004;2022-08-03T11:02:18;11.57;;;10.98;;
46653;SDS011;38960;51.074;17.004;2022-08-03T11:04:44;12.10;;;11.40;;
46653;SDS011;38960;51.074;17.004;2022-08-03T11:09:42;12.02;;;11.32;;
46653;SDS011;38960;51.074;17.004;2022-08-03T11:12:20;11.82;;;11.15;;
46653;SDS011;38960;51.074;17.004;2022-08-03T11:14:48;12.00;;;11.20;;
46653;SDS011;38960;51.074;17.004;2022-08-03T11:17:14;11.40;;;10.60;;
46653;SDS011;38960;51.074;17.004;2022-08-03T11:19:47;11.93;;;11.23;;
46653;SDS011;38960;51.074;17.004;2022-08-03T11:22:16;12.20;;;11.30;;
46653;SDS011;38960;51.074;17.004;2022-08-03T11:35:11;11.30;;;10.40;;
46653;SDS011;38960;51.074;17.004;2022-08-03T11:46:12;9.85;;;9.35;;
46653;SDS011;38960;51.074;17.004;2022-08-03T11:48:42;11.20;;;10.30;;
46653;SDS011;38960;51.074;17.004;2022-08-03T11:51:22;11.15;;;10.35;;
46653;SDS011;38960;51.074;17.004;2022-08-03T11:54:21;11.00;;;10.07;;
46653;SDS011;38960;51.074;17.004;2022-08-03T11:56:46;10.60;;;10.10;;
46653;SDS011;38960;51.074;17.004;2022-08-03T11:59:13;11.38;;;10.35;;
46653;SDS011;38960;51.074;17.004;2022-08-03T12:01:39;11.32;;;10.40;;
46653;SDS011;38960;51.074;17.004;2022-08-03T12:04:04;11.20;;;10.30;;
46653;SDS011;38960;51.074;17.004;2022-08-03T12:06:30;11.30;;;10.50;;
46653;SDS011;38960;51.074;17.004;2022-08-03T12:09:16;11.45;;;10.65;;
46653;SDS011;38960;51.074;17.004;2022-08-03T12:11:41;11.43;;;10.63;;
46653;SDS011;38960;51.074;17.004;2022-08-03T12:14:07;11.45;;;10.65;;
46653;SDS011;38960;51.074;17.004;2022-08-03T12:16:32;11.50;;;10.90;;
46653;SDS011;38960;51.074;17.004;2022-08-03T12:18:59;10.93;;;10.07;;
46653;SDS011;38960;51.074;17.004;2022-08-03T12:21:25;11.32;;;10.68;;
46653;SDS011;38960;51.074;17.004;2022-08-03T12:23:55;11.50;;;10.70;;
46653;SDS011;38960;51.074;17.004;2022-08-03T12:26:24;11.60;;;10.60;;
46653;SDS011;38960;51.074;17.004;2022-08-03T12:28:50;10.57;;;9.98;;
46653;SDS011;38960;51.074;17.004;2022-08-03T12:31:15;11.07;;;10.48;;
46653;SDS011;38960;51.074;17.004;2022-08-03T12:36:27;11.20;;;10.30;;
46653;SDS011;38960;51.074;17.004;2022-08-03T12:39:05;11.02;;;10.23;;
46653;SDS011;38960;51.074;17.004;2022-08-03T12:41:38;11.15;;;10.40;;
46653;SDS011;38960;51.074;17.004;2022-08-03T12:44:05;11.05;;;10.45;;
46653;SDS011;38960;51.074;17.004;2022-08-03T12:46:39;11.10;;;10.13;;
46653;SDS011;38960;51.074;17.004;2022-08-03T12:51:37;11.48;;;10.80;;
46653;SDS011;38960;51.074;17.004;2022-08-03T12:54:30;11.10;;;10.40;;
46653;SDS011;38960;51.074;17.004;2022-08-03T12:57:02;11.35;;;10.18;;
46653;SDS011;38960;51.074;17.004;2022-08-03T12:59:39;11.75;;;10.95;;
46653;SDS011;38960;51.074;17.004;2022-08-03T13:02:19;11.98;;;11.07;;
46653;SDS011;38960;51.074;17.004;2022-08-03T13:04:48;10.65;;;9.85;;
46653;SDS011;38960;51.074;17.004;2022-08-03T13:07:15;10.98;;;10.13;;
46653;SDS011;38960;51.074;17.004;2022-08-03T13:09:42;11.52;;;10.60;;
46653;SDS011;38960;51.074;17.004;2022-08-03T13:12:14;11.15;;;10.35;;
46653;SDS011;38960;51.074;17.004;2022-08-03T13:14:40;11.20;;;10.50;;
46653;SDS011;38960;51.074;17.004;2022-08-03T13:17:06;10.82;;;10.23;;
46653;SDS011;38960;51.074;17.004;2022-08-03T13:19:32;10.52;;;9.73;;
46653;SDS011;38960;51.074;17.004;2022-08-03T13:21:58;10.20;;;9.57;;
46653;SDS011;38960;51.074;17.004;2022-08-03T13:24:25;10.00;;;9.10;;
46653;SDS011;38960;51.074;17.004;2022-08-03T13:26:51;10.80;;;10.20;;
46653;SDS011;38960;51.074;17.004;2022-08-03T13:29:16;10.10;;;9.40;;
46653;SDS011;38960;51.074;17.004;2022-08-03T13:31:42;10.73;;;9.90;;
46653;SDS011;38960;51.074;17.004;2022-08-03T13:34:07;11.10;;;10.43;;
46653;SDS011;38960;51.074;17.004;2022-08-03T13:36:33;11.45;;;10.75;;
46653;SDS011;38960;51.074;17.004;2022-08-03T13:38:59;11.43;;;10.65;;
46653;SDS011;38960;51.074;17.004;2022-08-03T13:41:24;11.27;;;10.60;;
46653;SDS011;38960;51.074;17.004;2022-08-03T13:43:49;11.15;;;10.55;;
46653;SDS011;38960;51.074;17.004;2022-08-03T13:46:15;12.00;;;11.30;;
46653;SDS011;38960;51.074;17.004;2022-08-03T13:48:40;12.00;;;11.02;;
46653;SDS011;38960;51.074;17.004;2022-08-03T13:51:06;11.80;;;11.05;;
46653;SDS011;38960;51.074;17.004;2022-08-03T13:53:31;11.82;;;11.23;;
46653;SDS011;38960;51.074;17.004;2022-08-03T13:55:57;11.52;;;10.73;;
46653;SDS011;38960;51.074;17.004;2022-08-03T13:58:22;11.10;;;10.50;;
46653;SDS011;38960;51.074;17.004;2022-08-03T14:00:48;12.77;;;11.40;;
46653;SDS011;38960;51.074;17.004;2022-08-03T14:03:13;12.07;;;11.38;;
46653;SDS011;38960;51.074;17.004;2022-08-03T14:05:39;12.00;;;11.30;;
46653;SDS011;38960;51.074;17.004;2022-08-03T14:08:05;12.80;;;12.10;;
46653;SDS011;38960;51.074;17.004;2022-08-03T14:10:32;12.65;;;11.73;;
46653;SDS011;38960;51.074;17.004;2022-08-03T14:12:58;12.55;;;11.85;;
46653;SDS011;38960;51.074;17.004;2022-08-03T14:15:24;12.80;;;11.98;;
46653;SDS011;38960;51.074;17.004;2022-08-03T14:17:50;12.50;;;11.70;;
46653;SDS011;38960;51.074;17.004;2022-08-03T14:20:16;13.10;;;12.07;;
46653;SDS011;38960;51.074;17.004;2022-08-03T14:22:41;12.68;;;11.98;;
46653;SDS011;38960;51.074;17.004;2022-08-03T14:25:07;11.68;;;11.07;;
46653;SDS011;38960;51.074;17.004;2022-08-03T14:27:32;13.10;;;12.20;;
46653;SDS011;38960;51.074;17.004;2022-08-03T14:29:58;12.13;;;11.45;;
46653;SDS011;38960;51.074;17.004;2022-08-03T14:32:25;12.02;;;11.32;;
46653;SDS011;38960;51.074;17.004;2022-08-03T14:34:51;12.10;;;11.40;;
46653;SDS011;38960;51.074;17.004;2022-08-03T14:37:17;12.30;;;11.45;;
46653;SDS011;38960;51.074;17.004;2022-08-03T14:39:42;11.93;;;11.32;;
46653;SDS011;38960;51.074;17.004;2022-08-03T14:42:08;12.15;;;11.35;;
46653;SDS011;38960;51.074;17.004;2022-08-03T14:44:33;12.10;;;11.30;;
46653;SDS011;38960;51.074;17.004;2022-08-03T14:46:59;11.95;;;11.35;;
46653;SDS011;38960;51.074;17.004;2022-08-03T14:49:25;11.98;;;11.27;;
46653;SDS011;38960;51.074;17.004;2022-08-03T14:51:50;12.75;;;11.75;;
46653;SDS011;38960;51.074;17.004;2022-08-03T14:54:16;11.65;;;11.05;;
46653;SDS011;38960;51.074;17.004;2022-08-03T14:56:41;11.88;;;11.18;;
46653;SDS011;38960;51.074;17.004;2022-08-03T14:59:07;11.90;;;11.10;;